sensor_id;sensor_type;location;lat;lon;timestamp;temperature;humidity
38020;DHT22;23829;51.350;17.286;2022-12-18T00:01:30;15.30;28.80
38020;DHT22;23829;51.350;17.286;2022-12-18T00:03:57;15.40;28.60
38020;DHT22;23829;51.350;17.286;2022-12-18T00:06:25;15.30;28.80
38020;DHT22;23829;51.350;17.286;2022-12-18T00:08:52;15.40;28.80
38020;DHT22;23829;51.350;17.286;2022-12-18T00:11:24;15.30;28.60
38020;DHT22;23829;51.350;17.286;2022-12-18T00:13:53;15.20;28.70
38020;DHT22;23829;51.350;17.286;2022-12-18T00:16:21;15.30;28.80
38020;DHT22;23829;51.350;17.286;2022-12-18T00:18:49;15.40;28.70
38020;DHT22;23829;51.350;17.286;2022-12-18T00:21:16;15.50;28.70
38020;DHT22;23829;51.350;17.286;2022-12-18T00:23:44;15.40;28.60
38020;DHT22;23829;51.350;17.286;2022-12-18T00:26:17;15.40;28.70
38020;DHT22;23829;51.350;17.286;2022-12-18T00:28:45;15.40;28.70
38020;DHT22;23829;51.350;17.286;2022-12-18T00:31:16;15.40;28.80
38020;DHT22;23829;51.350;17.286;2022-12-18T00:33:43;15.40;29.20
38020;DHT22;23829;51.350;17.286;2022-12-18T00:36:15;15.50;28.40
38020;DHT22;23829;51.350;17.286;2022-12-18T00:38:42;15.50;29.20
38020;DHT22;23829;51.350;17.286;2022-12-18T00:41:10;15.50;28.70
38020;DHT22;23829;51.350;17.286;2022-12-18T00:43:38;15.40;28.60
38020;DHT22;23829;51.350;17.286;2022-12-18T00:46:05;15.40;28.60
38020;DHT22;23829;51.350;17.286;2022-12-18T00:48:32;15.50;28.80
38020;DHT22;23829;51.350;17.286;2022-12-18T00:50:58;15.40;28.80
38020;DHT22;23829;51.350;17.286;2022-12-18T00:53:25;15.50;28.80
38020;DHT22;23829;51.350;17.286;2022-12-18T00:55:51;15.60;28.50
38020;DHT22;23829;51.350;17.286;2022-12-18T00:58:18;15.50;28.60
38020;DHT22;23829;51.350;17.286;2022-12-18T01:00:44;15.40;28.60
38020;DHT22;23829;51.350;17.286;2022-12-18T01:03:13;15.40;28.60
38020;DHT22;23829;51.350;17.286;2022-12-18T01:05:41;15.40;28.70
38020;DHT22;23829;51.350;17.286;2022-12-18T01:08:08;15.30;28.70
38020;DHT22;23829;51.350;17.286;2022-12-18T01:10:34;15.20;28.90
38020;DHT22;23829;51.350;17.286;2022-12-18T01:13:01;15.20;29.00
38020;DHT22;23829;51.350;17.286;2022-12-18T01:15:27;15.30;29.00
38020;DHT22;23829;51.350;17.286;2022-12-18T01:17:54;15.40;28.80
38020;DHT22;23829;51.350;17.286;2022-12-18T01:20:20;15.50;28.70
38020;DHT22;23829;51.350;17.286;2022-12-18T01:22:46;15.50;28.60
38020;DHT22;23829;51.350;17.286;2022-12-18T01:25:13;15.50;28.70
38020;DHT22;23829;51.350;17.286;2022-12-18T01:27:39;15.40;28.70
38020;DHT22;23829;51.350;17.286;2022-12-18T01:30:06;15.30;28.70
38020;DHT22;23829;51.350;17.286;2022-12-18T01:32:33;15.50;28.60
38020;DHT22;23829;51.350;17.286;2022-12-18T01:35:02;15.60;28.60
38020;DHT22;23829;51.350;17.286;2022-12-18T01:37:29;15.60;28.50
38020;DHT22;23829;51.350;17.286;2022-12-18T01:39:55;15.50;28.60
38020;DHT22;23829;51.350;17.286;2022-12-18T01:42:22;15.40;28.60
38020;DHT22;23829;51.350;17.286;2022-12-18T01:47:38;15.50;28.70
38020;DHT22;23829;51.350;17.286;2022-12-18T01:52:42;15.50;28.60
38020;DHT22;23829;51.350;17.286;2022-12-18T01:55:10;15.50;28.50
38020;DHT22;23829;51.350;17.286;2022-12-18T01:57:38;15.50;28.60
38020;DHT22;23829;51.350;17.286;2022-12-18T02:00:10;15.50;28.50
38020;DHT22;23829;51.350;17.286;2022-12-18T02:02:41;15.40;28.50
38020;DHT22;23829;51.350;17.286;2022-12-18T02:05:10;15.40;28.50
38020;DHT22;23829;51.350;17.286;2022-12-18T02:13:49;15.20;28.70
38020;DHT22;23829;51.350;17.286;2022-12-18T02:22:21;14.90;28.70
38020;DHT22;23829;51.350;17.286;2022-12-18T02:25:24;15.00;28.90
38020;DHT22;23829;51.350;17.286;2022-12-18T02:27:47;15.10;28.90
38020;DHT22;23829;51.350;17.286;2022-12-18T02:30:15;14.80;29.00
38020;DHT22;23829;51.350;17.286;2022-12-18T02:32:50;14.80;29.20
38020;DHT22;23829;51.350;17.286;2022-12-18T02:35:22;14.70;29.10
38020;DHT22;23829;51.350;17.286;2022-12-18T02:37:53;14.70;29.30
38020;DHT22;23829;51.350;17.286;2022-12-18T02:40:22;14.90;29.20
38020;DHT22;23829;51.350;17.286;2022-12-18T02:42:50;14.90;29.10
38020;DHT22;23829;51.350;17.286;2022-12-18T02:45:18;15.00;29.00
38020;DHT22;23829;51.350;17.286;2022-12-18T02:47:48;15.00;29.00
38020;DHT22;23829;51.350;17.286;2022-12-18T02:50:31;14.90;29.20
38020;DHT22;23829;51.350;17.286;2022-12-18T02:53:10;15.10;29.10
38020;DHT22;23829;51.350;17.286;2022-12-18T03:01:29;15.10;29.10
38020;DHT22;23829;51.350;17.286;2022-12-18T03:04:06;15.00;29.20
38020;DHT22;23829;51.350;17.286;2022-12-18T03:06:45;14.90;29.70
38020;DHT22;23829;51.350;17.286;2022-12-18T03:09:25;15.00;29.10
38020;DHT22;23829;51.350;17.286;2022-12-18T03:12:02;15.10;29.20
38020;DHT22;23829;51.350;17.286;2022-12-18T03:14:55;15.10;29.00
38020;DHT22;23829;51.350;17.286;2022-12-18T03:17:27;15.20;29.10
38020;DHT22;23829;51.350;17.286;2022-12-18T03:19:57;15.20;29.10
38020;DHT22;23829;51.350;17.286;2022-12-18T03:22:27;15.20;28.90
38020;DHT22;23829;51.350;17.286;2022-12-18T03:24:56;15.30;29.00
38020;DHT22;23829;51.350;17.286;2022-12-18T03:27:25;15.30;29.00
38020;DHT22;23829;51.350;17.286;2022-12-18T03:30:08;15.20;28.90
38020;DHT22;23829;51.350;17.286;2022-12-18T03:33:02;15.30;28.90
38020;DHT22;23829;51.350;17.286;2022-12-18T03:35:34;15.40;28.90
38020;DHT22;23829;51.350;17.286;2022-12-18T03:38:05;15.30;29.00
38020;DHT22;23829;51.350;17.286;2022-12-18T03:41:02;15.30;29.00
38020;DHT22;23829;51.350;17.286;2022-12-18T03:46:12;15.60;28.70
38020;DHT22;23829;51.350;17.286;2022-12-18T03:48:46;15.60;28.70
38020;DHT22;23829;51.350;17.286;2022-12-18T03:54:13;15.60;28.50
38020;DHT22;23829;51.350;17.286;2022-12-18T03:56:51;15.50;28.70
38020;DHT22;23829;51.350;17.286;2022-12-18T03:59:22;15.50;29.10
38020;DHT22;23829;51.350;17.286;2022-12-18T04:01:52;15.30;28.80
38020;DHT22;23829;51.350;17.286;2022-12-18T04:04:20;15.30;28.90
38020;DHT22;23829;51.350;17.286;2022-12-18T04:06:48;15.40;29.00
38020;DHT22;23829;51.350;17.286;2022-12-18T04:09:19;15.30;28.90
38020;DHT22;23829;51.350;17.286;2022-12-18T04:11:47;15.30;28.90
38020;DHT22;23829;51.350;17.286;2022-12-18T04:14:15;15.20;29.00
38020;DHT22;23829;51.350;17.286;2022-12-18T04:16:41;15.40;29.00
38020;DHT22;23829;51.350;17.286;2022-12-18T04:19:12;15.40;28.90
38020;DHT22;23829;51.350;17.286;2022-12-18T04:21:41;15.50;28.70
38020;DHT22;23829;51.350;17.286;2022-12-18T04:24:10;15.30;29.30
38020;DHT22;23829;51.350;17.286;2022-12-18T04:26:41;15.30;28.90
38020;DHT22;23829;51.350;17.286;2022-12-18T04:29:22;15.40;28.90
38020;DHT22;23829;51.350;17.286;2022-12-18T04:31:49;15.60;28.90
38020;DHT22;23829;51.350;17.286;2022-12-18T04:34:16;15.50;28.70
38020;DHT22;23829;51.350;17.286;2022-12-18T04:36:48;15.50;28.70
38020;DHT22;23829;51.350;17.286;2022-12-18T04:39:18;15.40;28.90
38020;DHT22;23829;51.350;17.286;2022-12-18T04:41:47;15.40;29.00
38020;DHT22;23829;51.350;17.286;2022-12-18T04:44:14;15.40;28.90
38020;DHT22;23829;51.350;17.286;2022-12-18T04:46:40;15.40;28.90
38020;DHT22;23829;51.350;17.286;2022-12-18T04:49:07;15.60;28.70
38020;DHT22;23829;51.350;17.286;2022-12-18T04:51:33;15.60;28.60
38020;DHT22;23829;51.350;17.286;2022-12-18T04:54:00;15.50;28.70
38020;DHT22;23829;51.350;17.286;2022-12-18T04:56:26;15.50;28.80
38020;DHT22;23829;51.350;17.286;2022-12-18T04:58:52;15.40;28.80
38020;DHT22;23829;51.350;17.286;2022-12-18T05:01:19;15.40;28.80
38020;DHT22;23829;51.350;17.286;2022-12-18T05:03:46;15.40;28.80
38020;DHT22;23829;51.350;17.286;2022-12-18T05:06:12;15.30;28.90
38020;DHT22;23829;51.350;17.286;2022-12-18T05:08:39;15.20;29.00
38020;DHT22;23829;51.350;17.286;2022-12-18T05:11:08;15.20;28.90
38020;DHT22;23829;51.350;17.286;2022-12-18T05:13:36;15.10;29.00
38020;DHT22;23829;51.350;17.286;2022-12-18T05:16:02;15.20;29.10
38020;DHT22;23829;51.350;17.286;2022-12-18T05:18:29;15.20;29.10
38020;DHT22;23829;51.350;17.286;2022-12-18T05:20:56;15.20;29.10
38020;DHT22;23829;51.350;17.286;2022-12-18T05:23:23;15.20;29.00
38020;DHT22;23829;51.350;17.286;2022-12-18T05:25:56;15.10;29.30
38020;DHT22;23829;51.350;17.286;2022-12-18T05:28:24;15.20;29.10
38020;DHT22;23829;51.350;17.286;2022-12-18T05:30:52;15.20;29.20
38020;DHT22;23829;51.350;17.286;2022-12-18T05:33:20;15.20;29.30
38020;DHT22;23829;51.350;17.286;2022-12-18T05:35:54;15.20;29.30
38020;DHT22;23829;51.350;17.286;2022-12-18T05:38:22;15.30;29.10
38020;DHT22;23829;51.350;17.286;2022-12-18T05:40:49;15.40;29.20
38020;DHT22;23829;51.350;17.286;2022-12-18T05:43:17;15.40;29.00
38020;DHT22;23829;51.350;17.286;2022-12-18T05:45:45;15.50;29.00
38020;DHT22;23829;51.350;17.286;2022-12-18T05:48:15;15.40;29.10
38020;DHT22;23829;51.350;17.286;2022-12-18T05:50:43;15.50;29.10
38020;DHT22;23829;51.350;17.286;2022-12-18T05:53:12;15.50;29.00
38020;DHT22;23829;51.350;17.286;2022-12-18T05:55:40;15.70;28.90
38020;DHT22;23829;51.350;17.286;2022-12-18T05:58:09;15.70;28.70
38020;DHT22;23829;51.350;17.286;2022-12-18T06:00:39;15.70;28.90
38020;DHT22;23829;51.350;17.286;2022-12-18T06:03:07;15.60;28.90
38020;DHT22;23829;51.350;17.286;2022-12-18T06:05:36;15.60;28.90
38020;DHT22;23829;51.350;17.286;2022-12-18T06:08:03;15.50;29.00
38020;DHT22;23829;51.350;17.286;2022-12-18T06:10:30;15.50;29.00
38020;DHT22;23829;51.350;17.286;2022-12-18T06:12:57;15.50;29.00
38020;DHT22;23829;51.350;17.286;2022-12-18T06:15:23;15.30;29.00
38020;DHT22;23829;51.350;17.286;2022-12-18T06:17:50;15.30;29.10
38020;DHT22;23829;51.350;17.286;2022-12-18T06:20:17;15.30;29.10
38020;DHT22;23829;51.350;17.286;2022-12-18T06:22:44;15.50;29.00
38020;DHT22;23829;51.350;17.286;2022-12-18T06:25:10;15.50;28.90
38020;DHT22;23829;51.350;17.286;2022-12-18T06:27:37;15.50;29.00
38020;DHT22;23829;51.350;17.286;2022-12-18T06:30:05;15.50;29.00
38020;DHT22;23829;51.350;17.286;2022-12-18T06:32:32;15.50;29.00
38020;DHT22;23829;51.350;17.286;2022-12-18T06:34:58;15.60;29.00
38020;DHT22;23829;51.350;17.286;2022-12-18T06:37:25;15.70;28.90
38020;DHT22;23829;51.350;17.286;2022-12-18T06:39:53;15.60;28.90
38020;DHT22;23829;51.350;17.286;2022-12-18T06:42:23;15.50;29.00
38020;DHT22;23829;51.350;17.286;2022-12-18T06:44:49;15.50;29.00
38020;DHT22;23829;51.350;17.286;2022-12-18T06:47:16;15.50;29.10
38020;DHT22;23829;51.350;17.286;2022-12-18T06:49:43;15.50;29.00
38020;DHT22;23829;51.350;17.286;2022-12-18T06:52:09;15.60;28.90
38020;DHT22;23829;51.350;17.286;2022-12-18T06:54:36;15.50;29.00
38020;DHT22;23829;51.350;17.286;2022-12-18T06:57:02;15.50;28.90
38020;DHT22;23829;51.350;17.286;2022-12-18T06:59:29;15.70;28.90
38020;DHT22;23829;51.350;17.286;2022-12-18T07:01:55;15.50;29.40
38020;DHT22;23829;51.350;17.286;2022-12-18T07:04:21;15.50;29.10
38020;DHT22;23829;51.350;17.286;2022-12-18T07:06:48;15.30;29.10
38020;DHT22;23829;51.350;17.286;2022-12-18T07:09:14;15.30;29.20
38020;DHT22;23829;51.350;17.286;2022-12-18T07:11:41;15.20;29.20
38020;DHT22;23829;51.350;17.286;2022-12-18T07:14:07;15.20;29.30
38020;DHT22;23829;51.350;17.286;2022-12-18T07:16:34;15.30;29.30
38020;DHT22;23829;51.350;17.286;2022-12-18T07:19:00;15.20;29.30
38020;DHT22;23829;51.350;17.286;2022-12-18T07:21:27;15.30;29.30
38020;DHT22;23829;51.350;17.286;2022-12-18T07:23:53;15.30;29.30
38020;DHT22;23829;51.350;17.286;2022-12-18T07:26:21;15.30;29.20
38020;DHT22;23829;51.350;17.286;2022-12-18T07:28:48;15.50;29.20
38020;DHT22;23829;51.350;17.286;2022-12-18T07:31:18;15.50;29.10
38020;DHT22;23829;51.350;17.286;2022-12-18T07:33:45;15.70;29.00
38020;DHT22;23829;51.350;17.286;2022-12-18T07:36:12;15.70;28.90
38020;DHT22;23829;51.350;17.286;2022-12-18T07:38:38;15.70;28.90
38020;DHT22;23829;51.350;17.286;2022-12-18T07:41:07;15.70;29.00
38020;DHT22;23829;51.350;17.286;2022-12-18T07:43:34;15.70;28.90
38020;DHT22;23829;51.350;17.286;2022-12-18T07:46:01;15.80;28.90
38020;DHT22;23829;51.350;17.286;2022-12-18T07:48:28;15.80;28.70
38020;DHT22;23829;51.350;17.286;2022-12-18T07:51:03;15.90;28.60
38020;DHT22;23829;51.350;17.286;2022-12-18T07:53:30;15.70;28.70
38020;DHT22;23829;51.350;17.286;2022-12-18T07:56:01;15.60;28.70
38020;DHT22;23829;51.350;17.286;2022-12-18T07:58:29;15.50;28.90
38020;DHT22;23829;51.350;17.286;2022-12-18T08:01:03;15.50;29.00
38020;DHT22;23829;51.350;17.286;2022-12-18T08:03:30;15.40;29.00
38020;DHT22;23829;51.350;17.286;2022-12-18T08:06:01;15.30;29.00
38020;DHT22;23829;51.350;17.286;2022-12-18T08:08:28;15.30;29.10
38020;DHT22;23829;51.350;17.286;2022-12-18T08:10:55;15.20;29.10
38020;DHT22;23829;51.350;17.286;2022-12-18T08:13:22;15.10;29.20
38020;DHT22;23829;51.350;17.286;2022-12-18T08:16:05;14.80;29.50
38020;DHT22;23829;51.350;17.286;2022-12-18T08:18:33;14.60;29.70
38020;DHT22;23829;51.350;17.286;2022-12-18T08:21:20;14.50;29.70
38020;DHT22;23829;51.350;17.286;2022-12-18T08:23:50;14.40;29.80
38020;DHT22;23829;51.350;17.286;2022-12-18T08:26:17;14.50;29.90
38020;DHT22;23829;51.350;17.286;2022-12-18T08:28:43;14.60;29.70
38020;DHT22;23829;51.350;17.286;2022-12-18T08:31:10;14.80;29.80
38020;DHT22;23829;51.350;17.286;2022-12-18T08:33:37;15.00;29.60
38020;DHT22;23829;51.350;17.286;2022-12-18T08:36:05;15.20;29.50
38020;DHT22;23829;51.350;17.286;2022-12-18T08:38:32;15.10;29.30
38020;DHT22;23829;51.350;17.286;2022-12-18T08:41:00;14.90;29.50
38020;DHT22;23829;51.350;17.286;2022-12-18T08:43:27;14.80;29.60
38020;DHT22;23829;51.350;17.286;2022-12-18T08:46:15;14.80;29.60
38020;DHT22;23829;51.350;17.286;2022-12-18T08:48:41;15.00;29.50
38020;DHT22;23829;51.350;17.286;2022-12-18T08:51:08;15.20;29.30
38020;DHT22;23829;51.350;17.286;2022-12-18T08:53:36;15.40;29.20
38020;DHT22;23829;51.350;17.286;2022-12-18T08:56:05;15.40;29.10
38020;DHT22;23829;51.350;17.286;2022-12-18T08:58:31;15.50;29.10
38020;DHT22;23829;51.350;17.286;2022-12-18T09:01:06;15.60;29.00
38020;DHT22;23829;51.350;17.286;2022-12-18T09:03:33;15.30;29.10
38020;DHT22;23829;51.350;17.286;2022-12-18T09:05:59;15.40;29.00
38020;DHT22;23829;51.350;17.286;2022-12-18T09:08:26;15.50;28.90
38020;DHT22;23829;51.350;17.286;2022-12-18T09:10:53;15.50;28.90
38020;DHT22;23829;51.350;17.286;2022-12-18T09:13:20;15.60;28.70
38020;DHT22;23829;51.350;17.286;2022-12-18T09:15:54;15.60;28.70
38020;DHT22;23829;51.350;17.286;2022-12-18T09:18:23;15.50;28.90
38020;DHT22;23829;51.350;17.286;2022-12-18T09:20:50;15.40;29.00
38020;DHT22;23829;51.350;17.286;2022-12-18T09:23:18;15.20;29.10
38020;DHT22;23829;51.350;17.286;2022-12-18T09:25:45;15.00;29.20
38020;DHT22;23829;51.350;17.286;2022-12-18T09:28:16;15.00;29.40
38020;DHT22;23829;51.350;17.286;2022-12-18T09:30:45;14.80;29.50
38020;DHT22;23829;51.350;17.286;2022-12-18T09:33:12;14.90;29.50
38020;DHT22;23829;51.350;17.286;2022-12-18T09:35:41;15.10;29.30
38020;DHT22;23829;51.350;17.286;2022-12-18T09:38:09;15.10;29.30
38020;DHT22;23829;51.350;17.286;2022-12-18T09:40:52;15.20;29.20
38020;DHT22;23829;51.350;17.286;2022-12-18T09:43:28;15.30;29.20
38020;DHT22;23829;51.350;17.286;2022-12-18T09:46:06;15.30;29.10
38020;DHT22;23829;51.350;17.286;2022-12-18T09:48:36;15.20;29.00
38020;DHT22;23829;51.350;17.286;2022-12-18T09:51:24;15.10;29.30
38020;DHT22;23829;51.350;17.286;2022-12-18T09:54:03;14.70;29.50
38020;DHT22;23829;51.350;17.286;2022-12-18T09:56:35;14.60;29.70
38020;DHT22;23829;51.350;17.286;2022-12-18T09:59:04;14.40;29.80
38020;DHT22;23829;51.350;17.286;2022-12-18T10:01:32;14.40;29.80
38020;DHT22;23829;51.350;17.286;2022-12-18T10:03:59;14.60;30.00
38020;DHT22;23829;51.350;17.286;2022-12-18T10:06:44;14.80;29.90
38020;DHT22;23829;51.350;17.286;2022-12-18T10:17:46;14.80;29.60
38020;DHT22;23829;51.350;17.286;2022-12-18T10:20:38;15.10;29.50
38020;DHT22;23829;51.350;17.286;2022-12-18T10:26:04;15.10;29.30
38020;DHT22;23829;51.350;17.286;2022-12-18T10:28:32;15.00;29.90
38020;DHT22;23829;51.350;17.286;2022-12-18T10:31:14;14.80;29.60
38020;DHT22;23829;51.350;17.286;2022-12-18T10:33:43;14.70;29.60
38020;DHT22;23829;51.350;17.286;2022-12-18T10:36:10;14.90;29.50
38020;DHT22;23829;51.350;17.286;2022-12-18T10:38:37;14.80;29.60
38020;DHT22;23829;51.350;17.286;2022-12-18T10:41:23;14.60;29.80
38020;DHT22;23829;51.350;17.286;2022-12-18T10:44:12;14.30;29.90
38020;DHT22;23829;51.350;17.286;2022-12-18T10:46:41;14.10;30.30
38020;DHT22;23829;51.350;17.286;2022-12-18T10:49:23;14.30;30.30
38020;DHT22;23829;51.350;17.286;2022-12-18T10:51:50;14.50;30.10
38020;DHT22;23829;51.350;17.286;2022-12-18T10:54:24;14.70;29.90
38020;DHT22;23829;51.350;17.286;2022-12-18T10:56:51;14.80;29.90
38020;DHT22;23829;51.350;17.286;2022-12-18T10:59:18;15.00;29.60
38020;DHT22;23829;51.350;17.286;2022-12-18T11:01:56;15.10;29.60
38020;DHT22;23829;51.350;17.286;2022-12-18T11:04:26;15.20;29.50
38020;DHT22;23829;51.350;17.286;2022-12-18T11:07:10;15.30;29.40
38020;DHT22;23829;51.350;17.286;2022-12-18T11:09:39;15.30;29.30
38020;DHT22;23829;51.350;17.286;2022-12-18T11:12:19;15.10;29.30
38020;DHT22;23829;51.350;17.286;2022-12-18T11:14:51;15.20;29.40
38020;DHT22;23829;51.350;17.286;2022-12-18T11:17:29;15.00;29.50
38020;DHT22;23829;51.350;17.286;2022-12-18T11:19:59;15.20;29.30
38020;DHT22;23829;51.350;17.286;2022-12-18T11:22:31;15.30;29.10
38020;DHT22;23829;51.350;17.286;2022-12-18T11:25:18;15.40;28.90
38020;DHT22;23829;51.350;17.286;2022-12-18T11:27:53;15.20;29.00
38020;DHT22;23829;51.350;17.286;2022-12-18T11:30:32;15.30;29.00
38020;DHT22;23829;51.350;17.286;2022-12-18T11:33:03;15.40;28.90
38020;DHT22;23829;51.350;17.286;2022-12-18T11:38:29;15.10;29.10
38020;DHT22;23829;51.350;17.286;2022-12-18T11:43:58;15.40;29.00
38020;DHT22;23829;51.350;17.286;2022-12-18T11:46:38;15.50;28.90
38020;DHT22;23829;51.350;17.286;2022-12-18T11:49:20;15.50;28.80
38020;DHT22;23829;51.350;17.286;2022-12-18T11:51:51;15.50;28.70
38020;DHT22;23829;51.350;17.286;2022-12-18T11:54:21;15.40;28.70
38020;DHT22;23829;51.350;17.286;2022-12-18T11:56:55;15.20;28.90
38020;DHT22;23829;51.350;17.286;2022-12-18T12:13:47;14.60;29.60
38020;DHT22;23829;51.350;17.286;2022-12-18T12:22:30;15.40;29.00
38020;DHT22;23829;51.350;17.286;2022-12-18T12:25:08;15.50;28.90
38020;DHT22;23829;51.350;17.286;2022-12-18T12:28:19;15.30;28.90
38020;DHT22;23829;51.350;17.286;2022-12-18T12:38:47;15.10;29.00
38020;DHT22;23829;51.350;17.286;2022-12-18T12:41:25;15.10;29.20
38020;DHT22;23829;51.350;17.286;2022-12-18T12:44:39;15.20;29.00
38020;DHT22;23829;51.350;17.286;2022-12-18T12:47:23;15.30;29.50
38020;DHT22;23829;51.350;17.286;2022-12-18T12:49:52;15.40;28.90
38020;DHT22;23829;51.350;17.286;2022-12-18T12:52:41;15.30;28.90
38020;DHT22;23829;51.350;17.286;2022-12-18T12:55:28;15.20;29.00
38020;DHT22;23829;51.350;17.286;2022-12-18T12:58:18;14.90;29.20
38020;DHT22;23829;51.350;17.286;2022-12-18T13:01:11;14.80;29.30
38020;DHT22;23829;51.350;17.286;2022-12-18T13:04:01;14.60;29.50
38020;DHT22;23829;51.350;17.286;2022-12-18T13:09:10;14.40;29.60
38020;DHT22;23829;51.350;17.286;2022-12-18T13:11:43;14.10;30.20
38020;DHT22;23829;51.350;17.286;2022-12-18T13:14:40;14.20;29.90
38020;DHT22;23829;51.350;17.286;2022-12-18T13:17:28;14.40;29.70
38020;DHT22;23829;51.350;17.286;2022-12-18T13:20:11;14.60;29.60
38020;DHT22;23829;51.350;17.286;2022-12-18T13:35:51;14.30;29.60
38020;DHT22;23829;51.350;17.286;2022-12-18T13:41:03;14.10;29.60
38020;DHT22;23829;51.350;17.286;2022-12-18T13:43:38;14.00;29.80
38020;DHT22;23829;51.350;17.286;2022-12-18T13:46:41;13.90;30.00
38020;DHT22;23829;51.350;17.286;2022-12-18T13:49:21;14.10;29.80
38020;DHT22;23829;51.350;17.286;2022-12-18T13:51:51;14.20;29.70
38020;DHT22;23829;51.350;17.286;2022-12-18T13:54:24;14.20;29.80
38020;DHT22;23829;51.350;17.286;2022-12-18T13:56:51;14.20;29.70
38020;DHT22;23829;51.350;17.286;2022-12-18T13:59:23;14.20;29.80
38020;DHT22;23829;51.350;17.286;2022-12-18T14:01:58;14.50;29.60
38020;DHT22;23829;51.350;17.286;2022-12-18T14:04:30;14.70;29.40
38020;DHT22;23829;51.350;17.286;2022-12-18T14:07:18;14.60;29.30
38020;DHT22;23829;51.350;17.286;2022-12-18T14:09:49;14.20;29.70
38020;DHT22;23829;51.350;17.286;2022-12-18T14:12:31;14.40;29.70
38020;DHT22;23829;51.350;17.286;2022-12-18T14:15:46;14.20;29.60
38020;DHT22;23829;51.350;17.286;2022-12-18T14:18:22;14.00;29.80
38020;DHT22;23829;51.350;17.286;2022-12-18T14:20:51;13.90;29.90
38020;DHT22;23829;51.350;17.286;2022-12-18T14:23:37;14.00;30.00
38020;DHT22;23829;51.350;17.286;2022-12-18T14:28:47;14.20;29.60
38020;DHT22;23829;51.350;17.286;2022-12-18T14:31:18;14.10;29.90
38020;DHT22;23829;51.350;17.286;2022-12-18T14:33:45;14.30;29.60
38020;DHT22;23829;51.350;17.286;2022-12-18T14:36:16;14.10;29.60
38020;DHT22;23829;51.350;17.286;2022-12-18T14:38:48;13.90;29.80
38020;DHT22;23829;51.350;17.286;2022-12-18T14:41:17;13.80;30.00
38020;DHT22;23829;51.350;17.286;2022-12-18T14:43:46;13.70;30.00
38020;DHT22;23829;51.350;17.286;2022-12-18T14:46:34;13.30;30.40
38020;DHT22;23829;51.350;17.286;2022-12-18T14:51:55;13.80;30.10
38020;DHT22;23829;51.350;17.286;2022-12-18T14:54:23;13.80;30.00
38020;DHT22;23829;51.350;17.286;2022-12-18T14:57:03;13.90;30.00
38020;DHT22;23829;51.350;17.286;2022-12-18T14:59:31;14.10;29.80
38020;DHT22;23829;51.350;17.286;2022-12-18T15:02:02;13.90;29.90
38020;DHT22;23829;51.350;17.286;2022-12-18T15:04:36;14.10;29.90
38020;DHT22;23829;51.350;17.286;2022-12-18T15:07:14;14.10;29.70
38020;DHT22;23829;51.350;17.286;2022-12-18T15:09:44;13.90;29.90
38020;DHT22;23829;51.350;17.286;2022-12-18T15:15:36;13.50;30.20
38020;DHT22;23829;51.350;17.286;2022-12-18T15:18:02;13.60;30.40
38020;DHT22;23829;51.350;17.286;2022-12-18T15:20:38;13.70;30.20
38020;DHT22;23829;51.350;17.286;2022-12-18T15:23:12;13.90;30.10
38020;DHT22;23829;51.350;17.286;2022-12-18T15:25:39;13.80;30.10
38020;DHT22;23829;51.350;17.286;2022-12-18T15:28:34;13.90;30.00
38020;DHT22;23829;51.350;17.286;2022-12-18T15:36:17;13.50;30.50
38020;DHT22;23829;51.350;17.286;2022-12-18T15:38:50;13.70;30.50
38020;DHT22;23829;51.350;17.286;2022-12-18T15:41:19;13.80;30.20
38020;DHT22;23829;51.350;17.286;2022-12-18T15:43:50;13.90;30.10
38020;DHT22;23829;51.350;17.286;2022-12-18T15:46:20;14.10;30.00
38020;DHT22;23829;51.350;17.286;2022-12-18T15:48:51;14.10;30.00
38020;DHT22;23829;51.350;17.286;2022-12-18T15:51:27;14.20;29.90
38020;DHT22;23829;51.350;17.286;2022-12-18T15:53:56;14.30;29.80
38020;DHT22;23829;51.350;17.286;2022-12-18T15:56:23;14.30;29.80
38020;DHT22;23829;51.350;17.286;2022-12-18T15:59:13;14.00;29.90
38020;DHT22;23829;51.350;17.286;2022-12-18T16:01:41;14.10;30.00
38020;DHT22;23829;51.350;17.286;2022-12-18T16:04:15;14.20;29.80
38020;DHT22;23829;51.350;17.286;2022-12-18T16:06:42;14.40;29.70
38020;DHT22;23829;51.350;17.286;2022-12-18T16:09:09;14.30;29.90
38020;DHT22;23829;51.350;17.286;2022-12-18T16:11:37;14.00;29.90
38020;DHT22;23829;51.350;17.286;2022-12-18T16:14:17;13.90;30.00
38020;DHT22;23829;51.350;17.286;2022-12-18T16:16:46;13.80;30.10
38020;DHT22;23829;51.350;17.286;2022-12-18T16:19:13;13.60;30.50
38020;DHT22;23829;51.350;17.286;2022-12-18T16:21:40;13.60;30.50
38020;DHT22;23829;51.350;17.286;2022-12-18T16:24:16;13.50;30.50
38020;DHT22;23829;51.350;17.286;2022-12-18T16:26:43;13.60;30.60
38020;DHT22;23829;51.350;17.286;2022-12-18T16:29:10;13.50;30.50
38020;DHT22;23829;51.350;17.286;2022-12-18T16:31:37;13.80;30.30
38020;DHT22;23829;51.350;17.286;2022-12-18T16:34:20;13.60;30.20
38020;DHT22;23829;51.350;17.286;2022-12-18T16:37:03;13.50;30.50
38020;DHT22;23829;51.350;17.286;2022-12-18T16:39:30;13.60;30.30
38020;DHT22;23829;51.350;17.286;2022-12-18T16:41:57;13.40;30.40
38020;DHT22;23829;51.350;17.286;2022-12-18T16:44:23;13.30;30.70
38020;DHT22;23829;51.350;17.286;2022-12-18T16:46:50;13.50;30.60
38020;DHT22;23829;51.350;17.286;2022-12-18T16:49:18;13.70;30.30
38020;DHT22;23829;51.350;17.286;2022-12-18T16:51:48;13.90;30.00
38020;DHT22;23829;51.350;17.286;2022-12-18T16:54:14;13.80;30.00
38020;DHT22;23829;51.350;17.286;2022-12-18T16:56:41;13.70;30.00
38020;DHT22;23829;51.350;17.286;2022-12-18T16:59:10;13.60;30.10
38020;DHT22;23829;51.350;17.286;2022-12-18T17:01:38;13.70;30.10
38020;DHT22;23829;51.350;17.286;2022-12-18T17:04:05;13.60;30.20
38020;DHT22;23829;51.350;17.286;2022-12-18T17:06:34;13.90;30.00
38020;DHT22;23829;51.350;17.286;2022-12-18T17:09:03;13.70;30.00
38020;DHT22;23829;51.350;17.286;2022-12-18T17:11:32;13.80;29.90
38020;DHT22;23829;51.350;17.286;2022-12-18T17:14:04;13.90;29.90
38020;DHT22;23829;51.350;17.286;2022-12-18T17:16:31;13.70;29.90
38020;DHT22;23829;51.350;17.286;2022-12-18T17:18:57;13.30;30.20
38020;DHT22;23829;51.350;17.286;2022-12-18T17:21:24;13.20;30.70
38020;DHT22;23829;51.350;17.286;2022-12-18T17:23:50;13.30;30.50
38020;DHT22;23829;51.350;17.286;2022-12-18T17:26:17;13.10;30.70
38020;DHT22;23829;51.350;17.286;2022-12-18T17:28:43;13.00;30.80